Hlavní strana
METAR-TAF:

METAR-TAF

Letiště :

Teherán, Írán

Letiště Teherán-Mehrabád

zeměpisná šířka: 35-41N, zeměpisná délka: 051-21E, výška: 1204 m

Aktuální stav počasí

Zpráva byla vytvořena před 22 minutami, v 23:00 UTC
Bezvětří
Teplota 4°C
Vlhkost vzduchu 44%
Tlak 1016 hPa
Viditelnost 10 km a více
Žádná oblačnost pod 1500 m, nevyskytují se cumulonimby.

METAR: OIII 182300Z 00000KT CAVOK 04/M07 Q1015 A3000 NOSIG

Čas: 02:52 (23:22 UTC)

Předpověď počasí

Zpráva byla vytvořena před 6 hodinami a 22 minutami, v 17:00 UTC
Předpověď platná od 18 v 18 UTC do 19 v 24 UTC
Západoseverozápadní vítr 8 kt
Viditelnost: 7000 m
Skoro jasno ve výšce 3500 ft
Dočasný
od 19 v 15 UTC do 19 v 21 UTC
Východojihovýchodní vítr 16 kt

TAF: OIII 181700Z 1818/1924 30004MPS 7000 FEW035 TEMPO 1915/1921 12008MPS

Stav a předpovědi počasí z více než 4 000 letišť (zprávy METAR a TAF).

Červené a žluté tečky na mapě představují dostupné meteorologické stanice.

Když kurzor umístíte na tečku, zobrazí se název stanice.

Pak kliknutím zobrazíte stav a předpověď počasí.

Chcete-li změnit mapu, kliknutím na zelené tlačítko se znaménkem +mapu přiblížíte, kliknutím na zelené tlačítko se znaménkem – mapu oddálíte a kliknutím na zelené šipky přejdete na sousední mapy.


METAR-TAF: